createdAt,value
2019-04-06T00:01:08.295Z,58.20
2019-04-06T00:03:39.928Z,47.20
2019-04-06T00:06:11.574Z,41.97
2019-04-06T00:08:44.133Z,53.48
2019-04-06T00:11:15.782Z,54.23
2019-04-06T00:13:47.451Z,38.65
2019-04-06T00:16:19.082Z,37.35
2019-04-06T00:18:50.391Z,43.70
2019-04-06T00:21:22.016Z,46.40
2019-04-06T00:23:53.643Z,52.57
2019-04-06T00:26:52.696Z,65.37
2019-04-06T00:29:24.284Z,82.93
2019-04-06T00:32:00.031Z,82.63
2019-04-06T00:34:31.620Z,79.47
2019-04-06T00:37:03.261Z,60.07
2019-04-06T00:39:34.779Z,62.33
2019-04-06T00:42:06.427Z,60.03
2019-04-06T00:44:38.009Z,58.60
2019-04-06T00:47:09.631Z,59.03
2019-04-06T00:49:41.199Z,61.93
2019-04-06T00:52:12.775Z,62.33
2019-04-06T00:54:44.347Z,66.70
2019-04-06T00:57:15.840Z,50.37
2019-04-06T00:59:47.486Z,52.10
2019-04-06T01:02:19.082Z,49.03
2019-04-06T01:04:50.825Z,50.63
2019-04-06T01:07:23.274Z,47.67
2019-04-06T01:09:56.593Z,45.90
2019-04-06T01:12:28.199Z,43.30
2019-04-06T01:14:59.875Z,53.17
2019-04-06T01:17:31.487Z,56.70
2019-04-06T01:20:03.117Z,59.80
2019-04-06T01:22:34.708Z,54.83
2019-04-06T01:25:07.820Z,44.47
2019-04-06T01:27:39.439Z,72.03
2019-04-06T01:30:11.318Z,60.87
2019-04-06T01:32:43.073Z,51.03
2019-04-06T01:35:14.660Z,51.43
2019-04-06T01:37:46.275Z,51.33
2019-04-06T01:40:17.861Z,45.37
2019-04-06T01:42:49.510Z,45.93
2019-04-06T01:45:21.028Z,48.70
2019-04-06T01:47:53.466Z,47.33
2019-04-06T01:50:24.979Z,43.87
2019-04-06T01:52:56.613Z,42.57
2019-04-06T01:55:28.210Z,44.97
2019-04-06T01:57:59.885Z,36.07
2019-04-06T02:00:31.496Z,30.23
2019-04-06T02:03:03.163Z,34.43
2019-04-06T02:05:34.743Z,39.10
2019-04-06T02:08:06.344Z,41.00
2019-04-06T02:10:39.242Z,43.23
2019-04-06T02:13:10.798Z,43.57
2019-04-06T02:15:42.472Z,44.90
2019-04-06T02:18:14.030Z,41.23
2019-04-06T02:20:46.671Z,46.10
2019-04-06T02:23:18.197Z,45.03
2019-04-06T02:25:51.322Z,43.63
2019-04-06T02:28:22.907Z,43.33
2019-04-06T02:30:59.018Z,41.83
2019-04-06T02:33:50.501Z,42.97
2019-04-06T02:36:39.851Z,38.47
2019-04-06T02:39:16.275Z,41.97
2019-04-06T02:41:49.480Z,41.53
2019-04-06T02:44:21.118Z,38.37
2019-04-06T02:46:52.882Z,34.40
2019-04-06T02:49:24.660Z,27.17
2019-04-06T02:51:56.159Z,30.03
2019-04-06T02:54:27.801Z,27.47
2019-04-06T02:56:59.427Z,25.17
2019-04-06T02:59:31.263Z,22.33
2019-04-06T03:02:02.930Z,31.53
2019-04-06T03:04:34.477Z,27.20
2019-04-06T03:07:06.087Z,31.37
2019-04-06T03:09:37.667Z,34.93
2019-04-06T03:12:09.308Z,37.17
2019-04-06T03:14:44.047Z,34.20
2019-04-06T03:17:14.265Z,37.30
2019-04-06T03:19:45.793Z,39.17
2019-04-06T03:22:17.459Z,37.00
2019-04-06T03:24:50.339Z,39.63
2019-04-06T03:27:21.916Z,38.47
2019-04-06T03:29:58.345Z,41.80
2019-04-06T03:32:26.880Z,43.80
2019-04-06T03:34:58.894Z,47.90
2019-04-06T03:37:30.857Z,45.70
2019-04-06T03:40:02.445Z,49.47
2019-04-06T03:42:34.074Z,54.10
2019-04-06T03:45:08.478Z,44.83
2019-04-06T03:47:40.060Z,50.57
2019-04-06T03:50:11.783Z,54.57
2019-04-06T03:52:43.371Z,58.37
2019-04-06T03:55:14.927Z,56.30
2019-04-06T03:57:46.516Z,57.13
2019-04-06T04:00:18.158Z,57.07
2019-04-06T04:02:49.833Z,57.43
2019-04-06T04:05:21.407Z,58.27
2019-04-06T04:07:53.001Z,56.00
2019-04-06T04:10:36.726Z,60.00
2019-04-06T04:13:08.288Z,61.23
2019-04-06T04:15:39.918Z,64.05
2019-04-06T04:18:11.579Z,70.87
2019-04-06T04:20:43.283Z,84.32
2019-04-06T04:23:14.905Z,66.47
2019-04-06T04:25:46.557Z,75.45
2019-04-06T04:28:21.285Z,86.50
2019-04-06T04:30:53.128Z,91.05
2019-04-06T04:33:24.772Z,85.45
2019-04-06T04:35:56.369Z,88.15
2019-04-06T04:38:28.000Z,166.73
2019-04-06T04:40:59.526Z,120.72
2019-04-06T04:43:31.228Z,89.07
2019-04-06T04:46:02.877Z,90.12
2019-04-06T04:48:34.445Z,136.50
2019-04-06T04:51:07.283Z,93.92
2019-04-06T04:53:38.804Z,88.97
2019-04-06T04:56:10.357Z,82.12
2019-04-06T04:58:42.177Z,87.82
2019-04-06T05:01:13.852Z,80.07
2019-04-06T05:03:45.845Z,72.50
2019-04-06T05:06:17.522Z,62.60
2019-04-06T05:08:49.051Z,58.45
2019-04-06T05:11:20.799Z,63.95
2019-04-06T05:13:55.242Z,69.92
2019-04-06T05:16:26.880Z,72.47
2019-04-06T05:18:58.464Z,72.30
2019-04-06T05:21:30.143Z,65.70
2019-04-06T05:24:01.714Z,80.35
2019-04-06T05:26:38.329Z,68.85
2019-04-06T05:29:10.189Z,61.53
2019-04-06T05:31:42.074Z,63.65
2019-04-06T05:34:13.634Z,60.63
2019-04-06T05:36:45.212Z,57.58
2019-04-06T05:39:16.759Z,52.85
2019-04-06T05:41:50.447Z,55.00
2019-04-06T05:44:23.218Z,52.73
2019-04-06T05:46:54.838Z,46.23
2019-04-06T05:49:26.473Z,41.15
2019-04-06T05:51:58.161Z,45.23
2019-04-06T05:54:29.778Z,45.92
2019-04-06T05:57:01.358Z,42.30
2019-04-06T05:59:32.921Z,38.98
2019-04-06T06:02:04.554Z,41.75
2019-04-06T06:04:36.135Z,33.85
2019-04-06T06:07:08.446Z,36.05
2019-04-06T06:09:40.019Z,36.77
2019-04-06T06:12:13.865Z,33.25
2019-04-06T06:14:45.449Z,29.30
2019-04-06T06:17:19.202Z,34.13
2019-04-06T06:19:50.780Z,32.33
2019-04-06T06:22:22.793Z,23.25
2019-04-06T06:24:54.389Z,25.70
2019-04-06T06:27:25.961Z,25.62
2019-04-06T06:29:57.532Z,24.45
2019-04-06T06:32:31.758Z,22.82
2019-04-06T06:35:03.350Z,25.52
2019-04-06T06:37:34.958Z,21.62
2019-04-06T06:40:07.748Z,23.30
2019-04-06T06:42:39.350Z,23.85
2019-04-06T06:45:11.076Z,26.02
2019-04-06T06:47:42.678Z,23.38
2019-04-06T06:50:14.506Z,26.07
2019-04-06T06:52:46.153Z,26.93
2019-04-06T06:55:18.433Z,21.70
2019-04-06T06:57:50.165Z,19.50
2019-04-06T07:00:21.926Z,18.62
2019-04-06T07:02:54.009Z,17.98
2019-04-06T07:05:25.739Z,17.02
2019-04-06T07:07:59.061Z,17.92
2019-04-06T07:10:30.822Z,17.48
2019-04-06T07:13:04.117Z,16.60
2019-04-06T07:15:35.719Z,16.17
2019-04-06T07:18:07.334Z,15.72
2019-04-06T07:20:38.882Z,17.17
2019-04-06T07:23:10.481Z,16.15
2019-04-06T07:25:42.024Z,17.10
2019-04-06T07:28:13.657Z,13.05
2019-04-06T07:30:45.264Z,16.85
2019-04-06T07:33:17.618Z,16.57
2019-04-06T07:35:49.270Z,14.78
2019-04-06T07:38:20.790Z,11.35
2019-04-06T07:40:52.555Z,15.30
2019-04-06T07:43:24.079Z,13.72
2019-04-06T07:45:57.516Z,14.15
2019-04-06T07:48:29.132Z,12.20
2019-04-06T07:51:00.700Z,10.78
2019-04-06T07:53:32.490Z,12.45
2019-04-06T07:56:04.257Z,12.05
2019-04-06T07:58:35.901Z,11.85
2019-04-06T08:01:07.485Z,12.88
2019-04-06T08:03:39.113Z,16.57
2019-04-06T08:06:10.705Z,13.30
2019-04-06T08:08:42.361Z,13.43
2019-04-06T08:11:13.867Z,14.25
2019-04-06T08:13:46.026Z,13.98
2019-04-06T08:16:17.663Z,13.78
2019-04-06T08:18:49.235Z,15.15
2019-04-06T08:21:20.898Z,15.05
2019-04-06T08:23:52.480Z,15.10
2019-04-06T08:26:24.081Z,15.00
2019-04-06T08:29:01.775Z,14.10
2019-04-06T08:31:29.047Z,15.68
2019-04-06T08:34:00.637Z,14.93
2019-04-06T08:36:32.368Z,14.98
2019-04-06T08:39:05.700Z,16.23
2019-04-06T08:41:37.258Z,13.98
2019-04-06T08:44:09.414Z,16.00
2019-04-06T08:46:41.062Z,15.40
2019-04-06T08:49:12.635Z,10.65
2019-04-06T08:51:44.269Z,15.72
2019-04-06T08:54:16.462Z,15.43
2019-04-06T08:56:50.355Z,13.38
2019-04-06T08:59:23.198Z,16.23
2019-04-06T09:01:56.696Z,15.20
2019-04-06T09:04:28.209Z,14.18
2019-04-06T09:06:59.753Z,15.03
2019-04-06T09:09:32.780Z,14.23
2019-04-06T09:12:06.378Z,13.68
2019-04-06T09:14:37.965Z,15.35
2019-04-06T09:17:09.748Z,15.45
2019-04-06T09:19:41.487Z,14.43
2019-04-06T09:22:13.123Z,14.78
2019-04-06T09:24:45.928Z,15.20
2019-04-06T09:27:18.820Z,15.60
2019-04-06T09:30:04.177Z,15.63
2019-04-06T09:35:07.235Z,16.30
2019-04-06T09:37:39.015Z,14.63
2019-04-06T09:40:10.639Z,15.98
2019-04-06T09:42:42.215Z,16.82
2019-04-06T09:45:32.061Z,16.42
2019-04-06T09:48:11.325Z,17.20
2019-04-06T09:51:00.689Z,15.55
2019-04-06T09:53:42.755Z,15.35
2019-04-06T09:56:29.697Z,15.48
2019-04-06T09:59:17.901Z,14.83
2019-04-06T10:01:51.091Z,16.52
2019-04-06T10:04:33.472Z,17.50
2019-04-06T10:07:22.981Z,16.20
2019-04-06T10:09:56.141Z,13.90
2019-04-06T10:12:44.492Z,16.82
2019-04-06T10:15:17.777Z,16.62
2019-04-06T10:18:06.081Z,17.55
2019-04-06T10:20:43.103Z,17.15
2019-04-06T10:23:23.816Z,15.72
2019-04-06T10:25:59.975Z,15.23
2019-04-06T10:28:42.154Z,13.53
2019-04-06T10:31:15.332Z,14.80
2019-04-06T10:34:06.982Z,16.20
2019-04-06T10:36:44.302Z,16.23
2019-04-06T10:39:32.393Z,15.60
2019-04-06T10:42:08.285Z,16.23
2019-04-06T10:44:44.403Z,16.52
2019-04-06T10:47:29.783Z,16.27
2019-04-06T10:50:11.938Z,16.42
2019-04-06T10:52:45.101Z,17.07
2019-04-06T10:55:18.411Z,16.85
2019-04-06T10:57:51.531Z,16.50
2019-04-06T11:00:31.043Z,14.50
2019-04-06T11:03:10.241Z,17.48
2019-04-06T11:05:43.473Z,16.97
2019-04-06T11:08:19.373Z,16.17
2019-04-06T11:10:53.045Z,17.23
2019-04-06T11:13:29.456Z,15.25
2019-04-06T11:16:03.022Z,17.37
2019-04-06T11:18:36.355Z,16.35
2019-04-06T11:21:12.541Z,15.75
2019-04-06T11:23:45.736Z,16.80
2019-04-06T11:26:34.238Z,16.83
2019-04-06T11:29:25.903Z,15.83
2019-04-06T11:32:05.957Z,14.15
2019-04-06T11:34:56.371Z,15.23
2019-04-06T11:37:47.173Z,15.78
2019-04-06T11:40:23.479Z,18.52
2019-04-06T11:42:59.695Z,15.05
2019-04-06T11:45:49.628Z,15.45
2019-04-06T11:48:35.238Z,13.95
2019-04-06T11:51:24.499Z,7.83
2019-04-06T11:54:06.678Z,11.97
2019-04-06T11:56:41.001Z,7.55
2019-04-06T11:59:30.297Z,16.25
2019-04-06T12:02:03.814Z,16.48
2019-04-06T12:04:38.430Z,16.62
2019-04-06T12:07:11.639Z,16.35
2019-04-06T12:09:44.801Z,15.65
2019-04-06T12:12:30.483Z,14.70
2019-04-06T12:15:06.375Z,11.97
2019-04-06T12:17:49.853Z,15.48
2019-04-06T12:20:28.872Z,15.50
2019-04-06T12:23:02.055Z,15.40
2019-04-06T12:25:35.250Z,16.30
2019-04-06T12:28:11.601Z,15.05
2019-04-06T12:30:57.025Z,14.53
2019-04-06T12:33:36.303Z,15.83
2019-04-06T12:36:21.351Z,16.40
2019-04-06T12:39:09.785Z,16.35
2019-04-06T12:41:49.175Z,15.18
2019-04-06T12:44:38.536Z,6.62
2019-04-06T12:47:12.077Z,6.60
2019-04-06T12:49:46.707Z,10.35
2019-04-06T12:52:23.695Z,10.68
2019-04-06T12:54:56.960Z,15.95
2019-04-06T12:57:30.449Z,10.63
2019-04-06T13:00:03.647Z,15.90
2019-04-06T13:02:52.652Z,14.98
2019-04-06T13:05:38.242Z,16.77
2019-04-06T13:08:29.441Z,15.98
2019-04-06T13:11:19.888Z,15.93
2019-04-06T13:13:56.431Z,15.18
2019-04-06T13:16:29.581Z,16.37
2019-04-06T13:19:05.630Z,10.63
2019-04-06T13:21:45.122Z,16.55
2019-04-06T13:24:21.073Z,16.05
2019-04-06T13:27:08.105Z,13.18
2019-04-06T13:29:41.348Z,15.70
2019-04-06T13:32:30.784Z,15.75
2019-04-06T13:35:16.155Z,14.98
2019-04-06T13:38:01.339Z,15.85
2019-04-06T13:40:37.497Z,15.60
2019-04-06T13:43:19.909Z,14.85
2019-04-06T13:45:55.993Z,20.75
2019-04-06T13:48:38.303Z,15.45
2019-04-06T13:51:17.440Z,14.20
2019-04-06T13:53:53.741Z,14.45
2019-04-06T13:56:45.087Z,15.05
2019-04-06T13:59:34.585Z,6.67
2019-04-06T14:02:10.483Z,11.30
2019-04-06T14:04:48.941Z,15.70
2019-04-06T14:07:34.116Z,15.50
2019-04-06T14:10:14.767Z,5.93
2019-04-06T14:12:56.968Z,11.90
2019-04-06T14:15:40.079Z,13.03
2019-04-06T14:18:19.306Z,13.88
2019-04-06T14:21:08.861Z,11.28
2019-04-06T14:23:58.358Z,14.15
2019-04-06T14:26:34.554Z,13.68
2019-04-06T14:29:10.670Z,14.50
2019-04-06T14:32:00.601Z,15.48
2019-04-06T14:34:40.113Z,15.13
2019-04-06T14:37:14.920Z,14.35
2019-04-06T14:39:59.867Z,15.38
2019-04-06T14:42:33.072Z,15.78
2019-04-06T14:45:07.674Z,13.30
2019-04-06T14:47:56.997Z,12.45
2019-04-06T14:50:30.666Z,13.03
2019-04-06T14:53:12.751Z,12.88
2019-04-06T14:55:52.399Z,14.95
2019-04-06T14:58:29.125Z,10.30
2019-04-06T15:01:20.822Z,13.40
2019-04-06T15:04:10.217Z,8.58
2019-04-06T15:06:52.609Z,12.95
2019-04-06T15:09:30.231Z,16.17
2019-04-06T15:12:03.761Z,15.20
2019-04-06T15:14:42.853Z,15.70
2019-04-06T15:17:16.215Z,13.10
2019-04-06T15:19:52.144Z,14.73
2019-04-06T15:22:25.379Z,14.75
2019-04-06T15:25:13.701Z,16.57
2019-04-06T15:28:04.288Z,14.43
2019-04-06T15:30:56.930Z,16.35
2019-04-06T15:33:44.819Z,15.23
2019-04-06T15:36:18.398Z,14.98
2019-04-06T15:38:54.397Z,11.60
2019-04-06T15:41:36.978Z,14.18
2019-04-06T15:44:26.501Z,15.50
2019-04-06T15:47:02.762Z,8.55
2019-04-06T15:49:37.515Z,15.38
2019-04-06T15:52:15.339Z,15.05
2019-04-06T15:55:02.694Z,16.85
2019-04-06T15:57:44.785Z,16.60
2019-04-06T16:00:34.536Z,14.80
2019-04-06T16:03:14.083Z,14.58
2019-04-06T16:05:57.743Z,19.65
2019-04-06T16:11:13.378Z,18.92
2019-04-06T16:14:05.348Z,17.27
2019-04-06T16:16:41.502Z,19.67
2019-04-06T16:19:33.334Z,23.97
2019-04-06T16:22:16.013Z,26.93
2019-04-06T16:24:58.546Z,26.75
2019-04-06T16:27:42.572Z,27.20
2019-04-06T16:30:16.652Z,26.77
2019-04-06T16:35:30.589Z,28.00
2019-04-06T16:38:12.306Z,26.82
2019-04-06T16:40:53.158Z,29.15
2019-04-06T16:43:29.178Z,28.25
2019-04-06T16:46:07.614Z,32.50
2019-04-06T16:48:41.163Z,34.25
2019-04-06T16:51:17.733Z,33.20
2019-04-06T16:53:53.465Z,32.70
2019-04-06T16:56:40.562Z,34.35
2019-04-06T16:59:30.976Z,35.15
2019-04-06T17:02:22.102Z,31.15
2019-04-06T17:05:02.721Z,31.95
2019-04-06T17:07:54.661Z,33.58
2019-04-06T17:10:39.880Z,31.93
2019-04-06T17:13:31.164Z,32.53
2019-04-06T17:16:20.696Z,30.00
2019-04-06T17:18:56.715Z,34.45
2019-04-06T17:21:33.405Z,35.10
2019-04-06T17:24:12.421Z,35.58
2019-04-06T17:26:46.334Z,32.67
2019-04-06T17:29:31.276Z,37.28
2019-04-06T17:32:13.559Z,36.20
2019-04-06T17:34:54.424Z,41.63
2019-04-06T17:37:27.360Z,42.13
2019-04-06T17:40:04.324Z,30.05
2019-04-06T17:42:40.492Z,29.98
2019-04-06T17:45:20.176Z,26.37
2019-04-06T17:48:11.370Z,27.85
2019-04-06T17:50:47.800Z,35.33
2019-04-06T17:53:27.003Z,32.33
2019-04-06T17:56:03.401Z,26.80
2019-04-06T17:58:52.953Z,25.80
2019-04-06T18:01:36.742Z,24.67
2019-04-06T18:04:26.454Z,26.42
2019-04-06T18:07:02.571Z,16.48
2019-04-06T18:09:43.526Z,17.62
2019-04-06T18:12:32.974Z,14.38
2019-04-06T18:15:07.017Z,15.88
2019-04-06T18:17:38.606Z,21.30
2019-04-06T18:20:10.329Z,16.15
2019-04-06T18:22:41.991Z,15.20
2019-04-06T18:25:13.811Z,10.25
2019-04-06T18:27:45.410Z,13.28
2019-04-06T18:30:19.338Z,20.15
2019-04-06T18:32:59.662Z,14.93
2019-04-06T18:35:25.831Z,13.83
2019-04-06T18:38:16.996Z,17.50
2019-04-06T18:40:48.645Z,17.15
2019-04-06T18:43:20.638Z,11.48
2019-04-06T18:45:55.441Z,15.53
2019-04-06T18:48:29.319Z,21.55
2019-04-06T18:51:01.123Z,20.62
2019-04-06T18:53:33.091Z,17.75
2019-04-06T18:56:06.358Z,20.43
2019-04-06T18:58:38.097Z,19.10
2019-04-06T19:01:10.015Z,22.87
2019-04-06T19:03:41.755Z,23.02
2019-04-06T19:06:14.683Z,22.37
2019-04-06T19:08:46.254Z,19.40
2019-04-06T19:11:17.900Z,15.03
2019-04-06T19:13:51.277Z,18.32
2019-04-06T19:16:22.928Z,15.35
2019-04-06T19:18:54.870Z,18.65
2019-04-06T19:21:26.789Z,18.30
2019-04-06T19:23:58.784Z,8.55
2019-04-06T19:26:31.366Z,19.92
2019-04-06T19:29:03.014Z,23.20
2019-04-06T19:31:37.688Z,19.00
2019-04-06T19:34:10.184Z,22.37
2019-04-06T19:36:42.030Z,20.43
2019-04-06T19:39:15.203Z,20.92
2019-04-06T19:41:47.284Z,18.77
2019-04-06T19:44:19.301Z,18.07
2019-04-06T19:46:51.304Z,20.35
2019-04-06T19:49:23.141Z,21.73
2019-04-06T19:51:54.698Z,9.20
2019-04-06T19:54:26.819Z,17.12
2019-04-06T19:56:58.676Z,17.85
2019-04-06T19:59:30.348Z,19.52
2019-04-06T20:02:01.939Z,18.85
2019-04-06T20:04:35.804Z,19.80
2019-04-06T20:07:08.207Z,16.12
2019-04-06T20:09:42.134Z,18.15
2019-04-06T20:12:14.130Z,17.05
2019-04-06T20:14:45.749Z,14.20
2019-04-06T20:17:18.059Z,16.15
2019-04-06T20:19:49.746Z,12.63
2019-04-06T20:22:21.431Z,10.82
2019-04-06T20:24:53.178Z,17.00
2019-04-06T20:27:24.816Z,14.13
2019-04-06T20:29:57.904Z,15.30
2019-04-06T20:32:30.135Z,21.12
2019-04-06T20:35:01.890Z,20.05
2019-04-06T20:37:33.465Z,24.12
2019-04-06T20:40:08.602Z,13.88
2019-04-06T20:42:40.470Z,21.33
2019-04-06T20:45:12.971Z,21.77
2019-04-06T20:47:44.967Z,14.68
2019-04-06T20:50:16.879Z,24.05
2019-04-06T20:52:48.520Z,21.35
2019-04-06T20:55:20.142Z,23.73
2019-04-06T20:57:52.994Z,18.05
2019-04-06T21:00:25.675Z,25.57
2019-04-06T21:02:57.276Z,26.97
2019-04-06T21:05:28.915Z,17.92
2019-04-06T21:08:00.952Z,20.95
2019-04-06T21:10:32.679Z,23.87
2019-04-06T21:13:04.357Z,24.12
2019-04-06T21:15:35.877Z,25.70
2019-04-06T21:18:08.916Z,26.35
2019-04-06T21:20:41.167Z,25.77
2019-04-06T21:23:13.916Z,25.90
2019-04-06T21:25:45.547Z,26.30
2019-04-06T21:28:18.080Z,27.27
2019-04-06T21:30:50.886Z,23.77
2019-04-06T21:33:22.475Z,28.98
2019-04-06T21:35:54.091Z,26.90
2019-04-06T21:38:26.201Z,25.15
2019-04-06T21:40:58.377Z,23.02
2019-04-06T21:43:29.971Z,25.70
2019-04-06T21:46:02.386Z,20.72
2019-04-06T21:48:35.122Z,23.32
2019-04-06T21:51:06.793Z,25.57
2019-04-06T21:53:38.374Z,27.45
2019-04-06T21:56:10.003Z,24.92
2019-04-06T21:58:41.541Z,26.27
2019-04-06T22:01:15.487Z,20.72
2019-04-06T22:03:48.723Z,23.85
2019-04-06T22:06:20.658Z,25.88
2019-04-06T22:08:52.367Z,25.82
2019-04-06T22:11:25.595Z,20.97
2019-04-06T22:13:57.866Z,23.27
2019-04-06T22:16:29.859Z,20.68
2019-04-06T22:19:03.355Z,23.70
2019-04-06T22:21:35.035Z,27.40
2019-04-06T22:24:06.739Z,26.20
2019-04-06T22:26:38.441Z,23.98
2019-04-06T22:29:10.144Z,15.78
2019-04-06T22:31:44.901Z,22.95
2019-04-06T22:34:18.904Z,17.90
2019-04-06T22:36:50.683Z,23.20
2019-04-06T22:39:22.429Z,25.82
2019-04-06T22:41:54.058Z,25.97
2019-04-06T22:44:25.749Z,26.65
2019-04-06T22:46:57.983Z,24.37
2019-04-06T22:49:29.741Z,28.50
2019-04-06T22:52:01.320Z,17.50
2019-04-06T22:54:33.239Z,21.00
2019-04-06T22:57:05.383Z,25.35
2019-04-06T22:59:37.114Z,24.32
2019-04-06T23:02:09.341Z,22.20
2019-04-06T23:04:51.243Z,19.62
2019-04-06T23:07:23.530Z,16.25
2019-04-06T23:09:55.089Z,12.30
2019-04-06T23:12:26.713Z,10.18
2019-04-06T23:14:58.268Z,17.77
2019-04-06T23:17:29.857Z,12.43
2019-04-06T23:20:01.467Z,20.37
2019-04-06T23:22:33.063Z,24.32
2019-04-06T23:25:06.389Z,28.52
2019-04-06T23:27:37.963Z,25.65
2019-04-06T23:30:10.460Z,29.37
2019-04-06T23:32:42.300Z,25.23
2019-04-06T23:35:13.988Z,26.25
2019-04-06T23:37:45.896Z,28.15
2019-04-06T23:40:17.720Z,28.20
2019-04-06T23:42:49.362Z,23.73
2019-04-06T23:45:21.002Z,27.35
2019-04-06T23:47:52.535Z,29.67
2019-04-06T23:50:24.265Z,20.15
2019-04-06T23:52:56.227Z,18.17
2019-04-06T23:55:28.203Z,23.67
2019-04-06T23:57:59.990Z,26.48
